createdAt,value
2023-05-25T00:00:39.934Z,4.93
2023-05-25T00:02:17.495Z,4.18
2023-05-25T00:03:52.572Z,4.55
2023-05-25T00:05:27.584Z,3.15
2023-05-25T00:08:33.963Z,2.95
2023-05-25T00:10:09.653Z,4.43
2023-05-25T00:11:43.399Z,4.22
2023-05-25T00:13:16.774Z,3.45
2023-05-25T00:14:50.361Z,3.20
2023-05-25T00:16:25.320Z,3.42
2023-05-25T00:19:32.343Z,4.18
2023-05-25T00:21:07.183Z,3.95
2023-05-25T00:22:44.890Z,7.72
2023-05-25T00:24:18.331Z,4.10
2023-05-25T00:25:51.734Z,5.68
2023-05-25T00:27:25.334Z,5.90
2023-05-25T00:29:00.288Z,4.30
2023-05-25T00:32:08.520Z,4.72
2023-05-25T00:33:42.247Z,4.07
2023-05-25T00:35:15.532Z,5.18
2023-05-25T00:36:49.150Z,5.68
2023-05-25T00:38:22.420Z,3.30
2023-05-25T00:39:55.785Z,2.95
2023-05-25T00:41:31.561Z,4.25
2023-05-25T00:43:05.107Z,4.75
2023-05-25T00:44:37.445Z,2.33
2023-05-25T00:46:11.976Z,3.38
2023-05-25T00:47:52.293Z,4.55
2023-05-25T00:49:25.080Z,3.22
2023-05-25T00:51:00.076Z,3.83
2023-05-25T00:52:33.447Z,4.80
2023-05-25T00:54:07.337Z,4.80
2023-05-25T00:55:45.775Z,6.30
2023-05-25T00:57:23.326Z,3.35
2023-05-25T00:58:59.051Z,4.93
2023-05-25T01:00:35.859Z,5.40
2023-05-25T01:02:11.976Z,6.78
2023-05-25T01:03:53.571Z,4.22
2023-05-25T01:05:29.497Z,5.43
2023-05-25T01:07:05.037Z,3.95
2023-05-25T01:08:41.523Z,3.05
2023-05-25T01:10:17.919Z,5.38
2023-05-25T01:11:53.915Z,4.40
2023-05-25T01:13:29.401Z,3.72
2023-05-25T01:15:06.419Z,3.97
2023-05-25T01:16:41.585Z,3.80
2023-05-25T01:18:16.799Z,3.67
2023-05-25T01:20:08.975Z,3.25
2023-05-25T01:21:55.695Z,3.35
2023-05-25T01:23:35.850Z,4.32
2023-05-25T01:25:15.722Z,4.95
2023-05-25T01:26:59.130Z,4.38
2023-05-25T01:28:41.059Z,5.82
2023-05-25T01:30:18.223Z,4.22
2023-05-25T01:31:53.884Z,5.47
2023-05-25T01:33:29.890Z,4.32
2023-05-25T01:35:05.043Z,5.80
2023-05-25T01:36:38.459Z,4.60
2023-05-25T01:38:13.349Z,4.22
2023-05-25T01:39:46.760Z,3.95
2023-05-25T01:41:19.079Z,3.85
2023-05-25T01:42:52.825Z,3.17
2023-05-25T01:44:27.539Z,4.10
2023-05-25T01:46:16.894Z,4.00
2023-05-25T01:48:12.858Z,3.28
2023-05-25T01:49:59.088Z,4.28
2023-05-25T01:51:40.229Z,3.42
2023-05-25T01:53:23.890Z,5.07
2023-05-25T01:55:06.317Z,2.92
2023-05-25T01:56:43.653Z,2.92
2023-05-25T01:58:20.886Z,3.38
2023-05-25T02:00:00.240Z,10.73
2023-05-25T02:01:36.446Z,3.55
2023-05-25T02:03:10.660Z,4.35
2023-05-25T02:04:44.528Z,2.75
2023-05-25T02:06:18.166Z,5.00
2023-05-25T02:07:51.371Z,3.70
2023-05-25T02:09:26.140Z,2.97
2023-05-25T02:10:59.554Z,4.60
2023-05-25T02:12:32.071Z,3.20
2023-05-25T02:14:05.588Z,2.78
2023-05-25T02:15:37.969Z,4.07
2023-05-25T02:17:13.084Z,3.60
2023-05-25T02:18:45.926Z,5.75
2023-05-25T02:20:19.278Z,5.40
2023-05-25T02:21:56.573Z,4.00
2023-05-25T02:23:30.189Z,5.55
2023-05-25T02:25:05.692Z,3.95
2023-05-25T02:26:40.540Z,3.72
2023-05-25T02:28:15.767Z,4.20
2023-05-25T02:29:49.138Z,3.72
2023-05-25T02:31:22.536Z,4.03
2023-05-25T02:32:56.543Z,3.65
2023-05-25T02:34:32.826Z,4.07
2023-05-25T02:36:06.915Z,3.83
2023-05-25T02:37:40.805Z,4.05
2023-05-25T02:39:14.768Z,3.22
2023-05-25T02:40:49.869Z,3.08
2023-05-25T02:42:23.311Z,3.03
2023-05-25T02:43:56.753Z,3.10
2023-05-25T02:45:30.111Z,4.38
2023-05-25T02:47:03.892Z,3.15
2023-05-25T02:48:36.842Z,4.82
2023-05-25T02:50:11.327Z,3.50
2023-05-25T02:51:49.952Z,4.70
2023-05-25T02:53:22.577Z,5.85
2023-05-25T02:54:55.964Z,4.22
2023-05-25T02:58:11.786Z,4.57
2023-05-25T03:00:11.700Z,4.93
2023-05-25T03:01:44.126Z,4.18
2023-05-25T03:03:17.653Z,3.13
2023-05-25T03:04:53.592Z,3.72
2023-05-25T03:06:27.322Z,2.33
2023-05-25T03:08:08.384Z,2.25
2023-05-25T03:09:42.040Z,3.63
2023-05-25T03:11:15.938Z,3.65
2023-05-25T03:12:52.775Z,4.07
2023-05-25T03:14:26.016Z,3.97
2023-05-25T03:16:02.824Z,3.55
2023-05-25T03:17:36.644Z,3.28
2023-05-25T03:19:10.923Z,3.40
2023-05-25T03:20:44.237Z,3.17
2023-05-25T03:22:17.684Z,5.05
2023-05-25T03:23:52.724Z,3.22
2023-05-25T03:25:26.234Z,3.28
2023-05-25T03:26:59.453Z,5.20
2023-05-25T03:28:34.333Z,3.38
2023-05-25T03:30:09.972Z,4.90
2023-05-25T03:31:43.362Z,2.72
2023-05-25T03:33:16.704Z,3.20
2023-05-25T03:34:52.483Z,3.80
2023-05-25T03:36:27.337Z,3.38
2023-05-25T03:39:33.184Z,3.72
2023-05-25T03:41:05.830Z,5.65
2023-05-25T03:42:39.630Z,3.63
2023-05-25T03:44:15.133Z,3.88
2023-05-25T03:45:49.642Z,3.15
2023-05-25T03:47:23.697Z,3.25
2023-05-25T03:48:57.368Z,3.35
2023-05-25T03:50:30.772Z,3.58
2023-05-25T03:52:06.112Z,4.00
2023-05-25T03:53:39.640Z,4.13
2023-05-25T03:55:15.770Z,4.82
2023-05-25T03:56:49.106Z,7.00
2023-05-25T03:58:22.605Z,2.85
2023-05-25T03:59:57.296Z,4.05
2023-05-25T04:01:31.091Z,3.92
2023-05-25T04:03:04.794Z,3.33
2023-05-25T04:04:44.092Z,5.60
2023-05-25T04:06:19.423Z,3.53
2023-05-25T04:07:52.840Z,2.95
2023-05-25T04:09:26.242Z,2.63
2023-05-25T04:10:59.710Z,3.15
2023-05-25T04:12:36.474Z,2.63
2023-05-25T04:14:11.809Z,3.38
2023-05-25T04:15:48.588Z,4.03
2023-05-25T04:17:25.464Z,3.38
2023-05-25T04:18:59.661Z,4.68
2023-05-25T04:20:33.110Z,2.78
2023-05-25T04:22:06.913Z,5.03
2023-05-25T04:23:40.214Z,4.65
2023-05-25T04:25:14.202Z,5.13
2023-05-25T04:26:47.512Z,5.55
2023-05-25T04:28:20.997Z,4.03
2023-05-25T04:30:02.932Z,3.72
2023-05-25T04:32:03.735Z,3.20
2023-05-25T04:33:49.526Z,4.13
2023-05-25T04:35:37.734Z,3.33
2023-05-25T04:37:11.494Z,2.63
2023-05-25T04:38:48.086Z,4.93
2023-05-25T04:40:21.871Z,4.25
2023-05-25T04:41:57.183Z,4.50
2023-05-25T04:43:30.830Z,5.30
2023-05-25T04:45:06.627Z,5.80
2023-05-25T04:46:40.799Z,3.25
2023-05-25T04:48:20.845Z,5.13
2023-05-25T04:49:54.793Z,6.18
2023-05-25T04:51:29.561Z,4.25
2023-05-25T04:53:03.162Z,3.47
2023-05-25T04:54:36.524Z,3.67
2023-05-25T04:56:09.837Z,2.60
2023-05-25T04:57:43.286Z,7.10
2023-05-25T04:59:16.762Z,2.72
2023-05-25T05:00:52.494Z,5.65
2023-05-25T05:02:26.540Z,5.18
2023-05-25T05:04:01.973Z,5.57
2023-05-25T05:05:37.513Z,4.75
2023-05-25T05:07:14.736Z,5.28
2023-05-25T05:08:48.642Z,4.82
2023-05-25T05:10:22.387Z,5.30
2023-05-25T05:12:00.915Z,5.00
2023-05-25T05:13:35.386Z,5.68
2023-05-25T05:15:10.401Z,4.75
2023-05-25T05:16:45.484Z,7.38
2023-05-25T05:18:18.887Z,5.35
2023-05-25T05:19:53.624Z,4.85
2023-05-25T05:23:00.381Z,4.45
2023-05-25T05:24:34.134Z,5.43
2023-05-25T05:26:10.902Z,6.03
2023-05-25T05:27:44.353Z,5.88
2023-05-25T05:29:34.171Z,4.32
2023-05-25T05:31:08.142Z,5.88
2023-05-25T05:32:41.681Z,5.95
2023-05-25T05:34:16.684Z,5.80
2023-05-25T05:35:52.381Z,4.75
2023-05-25T05:37:27.969Z,4.60
2023-05-25T05:39:01.296Z,6.05
2023-05-25T05:40:35.349Z,6.22
2023-05-25T05:42:09.474Z,4.97
2023-05-25T05:43:44.062Z,7.47
2023-05-25T05:45:17.434Z,6.72
2023-05-25T05:46:50.822Z,6.88
2023-05-25T05:48:24.180Z,5.80
2023-05-25T05:49:57.366Z,6.95
2023-05-25T05:51:32.263Z,5.07
2023-05-25T05:53:06.118Z,5.90
2023-05-25T05:54:39.389Z,3.75
2023-05-25T05:56:20.604Z,4.50
2023-05-25T05:57:54.447Z,7.32
2023-05-25T05:59:28.204Z,4.32
2023-05-25T06:01:03.291Z,6.80
2023-05-25T06:02:38.082Z,4.97
2023-05-25T06:04:13.438Z,5.75
2023-05-25T06:05:46.932Z,6.03
2023-05-25T06:07:22.370Z,6.97
2023-05-25T06:08:56.358Z,7.90
2023-05-25T06:10:31.185Z,6.63
2023-05-25T06:12:06.163Z,8.00
2023-05-25T06:13:40.614Z,6.03
2023-05-25T06:15:14.096Z,5.43
2023-05-25T06:16:47.565Z,6.07
2023-05-25T06:18:21.005Z,7.05
2023-05-25T06:19:54.402Z,7.72
2023-05-25T06:21:27.796Z,8.50
2023-05-25T06:23:02.671Z,6.80
2023-05-25T06:24:35.958Z,9.52
2023-05-25T06:26:09.304Z,10.98
2023-05-25T06:27:47.662Z,6.28
2023-05-25T06:29:21.422Z,6.07
2023-05-25T06:30:54.849Z,7.78
2023-05-25T06:32:28.754Z,7.95
2023-05-25T06:34:02.176Z,7.53
2023-05-25T06:35:35.667Z,5.82
2023-05-25T06:37:09.123Z,10.45
2023-05-25T06:38:44.580Z,11.02
2023-05-25T06:41:52.282Z,8.70
2023-05-25T06:43:34.715Z,9.20
2023-05-25T06:45:26.638Z,7.97
2023-05-25T06:47:00.024Z,11.07
2023-05-25T06:48:33.812Z,9.82
2023-05-25T06:50:09.831Z,14.32
2023-05-25T06:51:43.284Z,14.20
2023-05-25T06:53:17.383Z,12.88
2023-05-25T06:54:52.199Z,12.13
2023-05-25T06:57:58.929Z,12.50
2023-05-25T06:59:32.309Z,12.20
2023-05-25T07:01:06.118Z,13.30
2023-05-25T07:02:39.712Z,13.30
2023-05-25T07:04:13.261Z,14.13
2023-05-25T07:05:46.651Z,14.60
2023-05-25T07:07:20.465Z,13.30
2023-05-25T07:08:55.187Z,17.40
2023-05-25T07:10:30.078Z,17.05
2023-05-25T07:12:03.548Z,14.40
2023-05-25T07:13:36.917Z,14.68
2023-05-25T07:15:13.303Z,15.10
2023-05-25T07:16:46.657Z,14.35
2023-05-25T07:18:20.235Z,15.88
2023-05-25T07:19:53.813Z,14.02
2023-05-25T07:21:27.249Z,17.67
2023-05-25T07:23:00.768Z,17.45
2023-05-25T07:24:34.070Z,12.10
2023-05-25T07:26:09.374Z,14.55
2023-05-25T07:27:43.654Z,12.40
2023-05-25T07:29:17.392Z,13.88
2023-05-25T07:30:51.076Z,12.05
2023-05-25T07:32:24.422Z,15.50
2023-05-25T07:34:15.161Z,9.08
2023-05-25T07:35:48.327Z,15.85
2023-05-25T07:37:21.709Z,14.32
2023-05-25T07:38:55.139Z,15.23
2023-05-25T07:40:29.199Z,15.68
2023-05-25T07:42:03.956Z,17.27
2023-05-25T07:45:12.593Z,12.23
2023-05-25T07:46:46.183Z,10.85
2023-05-25T07:48:20.439Z,13.25
2023-05-25T07:49:54.060Z,15.80
2023-05-25T07:51:31.160Z,15.15
2023-05-25T07:53:04.490Z,13.15
2023-05-25T07:54:40.219Z,14.35
2023-05-25T07:56:13.654Z,12.25
2023-05-25T07:57:48.305Z,10.90
2023-05-25T07:59:21.739Z,10.50
2023-05-25T08:00:55.554Z,10.85
2023-05-25T08:02:29.050Z,9.82
2023-05-25T08:04:02.597Z,10.68
2023-05-25T08:05:36.034Z,10.73
2023-05-25T08:07:09.492Z,9.15
2023-05-25T08:08:44.925Z,11.27
2023-05-25T08:10:18.879Z,9.77
2023-05-25T08:11:52.393Z,9.50
2023-05-25T08:13:31.568Z,9.52
2023-05-25T08:15:05.989Z,10.93
2023-05-25T08:16:39.646Z,6.60
2023-05-25T08:18:12.949Z,8.00
2023-05-25T08:19:46.530Z,9.32
2023-05-25T08:21:20.410Z,11.10
2023-05-25T08:22:54.457Z,7.13
2023-05-25T08:24:27.782Z,9.45
2023-05-25T08:26:01.548Z,7.22
2023-05-25T08:27:36.033Z,8.27
2023-05-25T08:29:11.673Z,7.78
2023-05-25T08:30:47.406Z,8.95
2023-05-25T08:32:20.884Z,9.18
2023-05-25T08:33:54.292Z,8.23
2023-05-25T08:35:27.704Z,8.48
2023-05-25T08:37:01.119Z,11.50
2023-05-25T08:38:34.848Z,11.38
2023-05-25T08:40:15.371Z,11.73
2023-05-25T08:41:51.260Z,7.03
2023-05-25T08:43:24.584Z,8.05
2023-05-25T08:44:59.828Z,7.85
2023-05-25T08:46:33.835Z,10.60
2023-05-25T08:48:26.993Z,9.13
2023-05-25T08:51:44.493Z,7.28
2023-05-25T08:53:20.285Z,8.40
2023-05-25T08:55:00.098Z,10.00
2023-05-25T08:56:41.654Z,8.02
2023-05-25T08:58:21.800Z,9.43
2023-05-25T09:00:09.668Z,11.15
2023-05-25T09:01:49.304Z,8.98
2023-05-25T09:03:25.469Z,7.18
2023-05-25T09:05:01.667Z,8.50
2023-05-25T09:06:38.514Z,11.48
2023-05-25T09:08:12.552Z,9.40
2023-05-25T09:09:49.050Z,9.60
2023-05-25T09:11:36.567Z,10.52
2023-05-25T09:13:21.765Z,8.02
2023-05-25T09:14:56.456Z,9.20
2023-05-25T09:16:33.518Z,8.48
2023-05-25T09:18:07.230Z,8.73
2023-05-25T09:19:40.827Z,7.57
2023-05-25T09:21:14.146Z,9.00
2023-05-25T09:22:49.074Z,9.32
2023-05-25T09:24:23.933Z,7.50
2023-05-25T09:25:59.471Z,8.50
2023-05-25T09:27:37.627Z,7.38
2023-05-25T09:29:14.206Z,7.20
2023-05-25T09:30:47.691Z,8.00
2023-05-25T09:32:24.374Z,8.35
2023-05-25T09:34:00.094Z,8.25
2023-05-25T09:35:49.207Z,8.95
2023-05-25T09:37:22.910Z,7.75
2023-05-25T09:38:57.315Z,12.77
2023-05-25T09:40:34.082Z,11.77
2023-05-25T09:42:07.912Z,8.27
2023-05-25T09:43:44.991Z,9.48
2023-05-25T09:45:24.672Z,8.88
2023-05-25T09:46:57.866Z,8.10
2023-05-25T09:48:31.556Z,10.57
2023-05-25T09:50:06.240Z,8.70
2023-05-25T09:53:14.990Z,8.13
2023-05-25T09:54:49.822Z,8.57
2023-05-25T09:56:23.809Z,6.38
2023-05-25T09:57:57.871Z,6.45
2023-05-25T09:59:31.800Z,7.90
2023-05-25T10:01:05.563Z,7.95
2023-05-25T10:02:38.988Z,6.10
2023-05-25T10:04:12.225Z,7.78
2023-05-25T10:05:46.766Z,6.95
2023-05-25T10:07:21.918Z,8.00
2023-05-25T10:08:59.058Z,6.20
2023-05-25T10:10:33.287Z,7.72
2023-05-25T10:12:08.170Z,6.20
2023-05-25T10:13:42.999Z,7.32
2023-05-25T10:15:18.127Z,6.30
2023-05-25T10:16:57.528Z,6.20
2023-05-25T10:18:40.882Z,8.27
2023-05-25T10:20:16.032Z,10.52
2023-05-25T10:21:59.562Z,8.82
2023-05-25T10:23:41.801Z,5.50
2023-05-25T10:25:26.821Z,10.18
2023-05-25T10:27:14.696Z,8.15
2023-05-25T10:30:28.032Z,5.50
2023-05-25T10:32:01.998Z,6.82
2023-05-25T10:33:35.220Z,6.07
2023-05-25T10:35:11.019Z,8.25
2023-05-25T10:36:44.464Z,6.93
2023-05-25T10:38:19.781Z,7.47
2023-05-25T10:39:57.622Z,7.95
2023-05-25T10:41:30.816Z,6.72
2023-05-25T10:43:05.598Z,7.57
2023-05-25T10:44:39.624Z,7.65
2023-05-25T10:46:14.970Z,5.55
2023-05-25T10:47:48.726Z,5.32
2023-05-25T10:49:33.281Z,7.28
2023-05-25T10:51:09.305Z,6.43
2023-05-25T10:52:44.147Z,7.85
2023-05-25T10:54:19.002Z,6.93
2023-05-25T10:56:05.320Z,7.05
2023-05-25T10:59:14.458Z,5.97
2023-05-25T11:01:00.842Z,7.13
2023-05-25T11:02:53.548Z,7.15
2023-05-25T11:04:27.271Z,6.45
2023-05-25T11:06:00.432Z,6.70
2023-05-25T11:07:52.530Z,6.65
2023-05-25T11:11:00.619Z,7.10
2023-05-25T11:12:35.083Z,6.43
2023-05-25T11:14:22.260Z,6.60
2023-05-25T11:16:18.654Z,5.75
2023-05-25T11:18:02.408Z,5.35
2023-05-25T11:19:44.384Z,5.07
2023-05-25T11:21:23.790Z,5.95
2023-05-25T11:22:59.748Z,5.80
2023-05-25T11:24:33.346Z,5.80
2023-05-25T11:26:08.099Z,6.47
2023-05-25T11:29:22.377Z,4.80
2023-05-25T11:30:56.591Z,6.47
2023-05-25T11:32:30.630Z,9.25
2023-05-25T11:34:06.047Z,7.18
2023-05-25T11:35:39.163Z,6.32
2023-05-25T11:37:12.920Z,4.70
2023-05-25T11:38:56.262Z,4.28
2023-05-25T11:40:39.482Z,7.63
2023-05-25T11:42:16.571Z,6.05
2023-05-25T11:43:53.334Z,5.63
2023-05-25T11:45:29.773Z,7.75
2023-05-25T11:47:08.406Z,8.70
2023-05-25T11:48:45.998Z,7.43
2023-05-25T11:50:19.472Z,7.18
2023-05-25T11:51:52.206Z,6.20
2023-05-25T11:53:25.620Z,6.53
2023-05-25T11:54:58.925Z,6.78
2023-05-25T11:56:35.929Z,6.82
2023-05-25T11:58:09.413Z,7.43
2023-05-25T11:59:50.194Z,9.60
2023-05-25T12:01:25.498Z,7.63
2023-05-25T12:02:58.734Z,6.20
2023-05-25T12:04:35.079Z,8.20
2023-05-25T12:06:08.779Z,7.63
2023-05-25T12:07:47.012Z,7.72
2023-05-25T12:09:23.862Z,7.10
2023-05-25T12:10:57.049Z,6.50
2023-05-25T12:12:30.576Z,9.60
2023-05-25T12:14:07.423Z,6.97
2023-05-25T12:15:44.308Z,6.75
2023-05-25T12:17:19.475Z,7.70
2023-05-25T12:18:54.342Z,8.95
2023-05-25T12:22:01.755Z,10.45
2023-05-25T12:23:35.872Z,8.02
2023-05-25T12:25:11.193Z,8.63
2023-05-25T12:27:00.936Z,7.05
2023-05-25T12:28:34.222Z,7.60
2023-05-25T12:30:16.893Z,7.93
2023-05-25T12:31:51.690Z,8.18
2023-05-25T12:35:08.013Z,8.40
2023-05-25T12:37:01.452Z,9.15
2023-05-25T12:38:34.651Z,8.63
2023-05-25T12:45:01.007Z,6.85
2023-05-25T12:46:34.304Z,10.90
2023-05-25T12:48:09.374Z,8.73
2023-05-25T12:49:44.639Z,8.55
2023-05-25T12:51:18.223Z,9.38
2023-05-25T12:52:51.669Z,9.00
2023-05-25T12:54:45.377Z,8.23
2023-05-25T12:56:18.993Z,8.68
2023-05-25T12:57:53.246Z,9.40
2023-05-25T12:59:28.244Z,7.75
2023-05-25T13:01:02.613Z,10.30
2023-05-25T13:02:36.375Z,8.45
2023-05-25T13:04:11.859Z,10.18
2023-05-25T13:05:46.452Z,9.25
2023-05-25T13:07:22.675Z,11.15
2023-05-25T13:08:55.235Z,8.43
2023-05-25T13:10:30.712Z,8.52
2023-05-25T13:12:04.540Z,10.27
2023-05-25T13:13:38.158Z,11.32
2023-05-25T13:15:12.693Z,8.80
2023-05-25T13:16:46.293Z,10.70
2023-05-25T13:18:20.020Z,10.05
2023-05-25T13:19:54.818Z,8.98
2023-05-25T13:23:03.217Z,9.85
2023-05-25T13:24:36.857Z,7.57
2023-05-25T13:26:10.642Z,8.45
2023-05-25T13:27:46.627Z,8.07
2023-05-25T13:29:20.316Z,8.82
2023-05-25T13:30:54.015Z,7.65
2023-05-25T13:32:27.623Z,9.13
2023-05-25T13:34:01.460Z,7.25
2023-05-25T13:35:45.570Z,7.78
2023-05-25T13:37:18.982Z,7.07
2023-05-25T13:38:52.483Z,7.88
2023-05-25T13:40:25.848Z,7.78
2023-05-25T13:41:59.597Z,9.10
2023-05-25T13:43:33.052Z,9.15
2023-05-25T13:45:07.744Z,7.38
2023-05-25T13:46:41.433Z,8.65
2023-05-25T13:48:15.104Z,8.32
2023-05-25T13:49:48.720Z,9.60
2023-05-25T13:51:23.592Z,7.97
2023-05-25T13:52:56.988Z,8.25
2023-05-25T13:54:30.453Z,8.85
2023-05-25T13:56:03.935Z,8.88
2023-05-25T13:57:37.690Z,7.63
2023-05-25T13:59:11.364Z,8.90
2023-05-25T14:00:45.133Z,9.15
2023-05-25T14:02:18.913Z,9.00
2023-05-25T14:03:52.455Z,7.72
2023-05-25T14:05:26.231Z,7.25
2023-05-25T14:07:01.976Z,7.68
2023-05-25T14:08:35.510Z,6.38
2023-05-25T14:10:10.049Z,7.28
2023-05-25T14:13:18.344Z,9.60
2023-05-25T14:14:51.731Z,8.95
2023-05-25T14:16:25.057Z,7.78
2023-05-25T14:17:58.367Z,8.70
2023-05-25T14:19:32.868Z,9.40
2023-05-25T14:21:06.247Z,7.95
2023-05-25T14:22:40.881Z,6.97
2023-05-25T14:24:14.296Z,8.35
2023-05-25T14:25:48.692Z,6.63
2023-05-25T14:27:22.199Z,6.70
2023-05-25T14:28:56.173Z,7.60
2023-05-25T14:30:29.577Z,8.85
2023-05-25T14:32:03.073Z,6.32
2023-05-25T14:33:36.576Z,10.00
2023-05-25T14:35:10.889Z,8.15
2023-05-25T14:36:44.182Z,8.20
2023-05-25T14:38:18.841Z,9.60
2023-05-25T14:39:52.107Z,7.55
2023-05-25T14:41:25.951Z,9.48
2023-05-25T14:42:59.258Z,7.10
2023-05-25T14:44:32.489Z,6.78
2023-05-25T14:46:07.363Z,7.07
2023-05-25T14:47:41.073Z,8.68
2023-05-25T14:49:14.581Z,8.60
2023-05-25T14:50:47.917Z,6.47
2023-05-25T14:52:21.175Z,7.07
2023-05-25T14:54:00.169Z,6.65
2023-05-25T14:55:38.524Z,7.60
2023-05-25T14:57:12.392Z,7.32
2023-05-25T14:58:45.848Z,10.10
2023-05-25T15:00:20.185Z,10.02
2023-05-25T15:01:53.483Z,7.00
2023-05-25T15:03:27.074Z,8.07
2023-05-25T15:05:00.360Z,6.25
2023-05-25T15:06:33.742Z,6.53
2023-05-25T15:08:07.027Z,7.35
2023-05-25T15:09:42.298Z,7.90
2023-05-25T15:11:15.571Z,9.43
2023-05-25T15:12:49.079Z,9.07
2023-05-25T15:14:22.352Z,6.93
2023-05-25T15:15:57.792Z,8.50
2023-05-25T15:17:31.896Z,8.85
2023-05-25T15:19:05.383Z,9.25
2023-05-25T15:20:39.099Z,7.30
2023-05-25T15:22:12.932Z,10.13
2023-05-25T15:23:48.372Z,7.88
2023-05-25T15:25:35.152Z,8.20
2023-05-25T15:27:09.403Z,9.40
2023-05-25T15:28:42.886Z,8.18
2023-05-25T15:30:17.879Z,8.25
2023-05-25T15:31:53.567Z,8.40
2023-05-25T15:33:39.455Z,6.70
2023-05-25T15:35:20.804Z,8.07
2023-05-25T15:36:54.308Z,6.97
2023-05-25T15:38:27.838Z,8.13
2023-05-25T15:40:01.959Z,6.65
2023-05-25T15:41:37.286Z,6.63
2023-05-25T15:43:12.359Z,7.07
2023-05-25T15:44:46.931Z,6.65
2023-05-25T15:46:22.682Z,4.88
2023-05-25T15:47:56.432Z,8.43
2023-05-25T15:49:36.620Z,7.40
2023-05-25T15:51:10.367Z,7.28
2023-05-25T15:52:43.860Z,7.50
2023-05-25T15:54:17.535Z,7.63
2023-05-25T15:55:51.561Z,6.82
2023-05-25T15:57:26.538Z,5.97
2023-05-25T15:58:59.184Z,5.53
2023-05-25T16:00:33.555Z,6.55
2023-05-25T16:02:07.883Z,8.40
2023-05-25T16:03:42.973Z,4.38
2023-05-25T16:05:16.554Z,5.00
2023-05-25T16:06:50.020Z,4.70
2023-05-25T16:08:23.796Z,4.65
2023-05-25T16:09:57.555Z,5.20
2023-05-25T16:11:33.028Z,4.25
2023-05-25T16:13:08.247Z,6.18
2023-05-25T16:14:41.762Z,5.90
2023-05-25T16:16:15.530Z,5.82
2023-05-25T16:17:49.198Z,7.25
2023-05-25T16:19:25.591Z,6.70
2023-05-25T16:20:59.153Z,6.40
2023-05-25T16:22:32.514Z,6.05
2023-05-25T16:24:06.648Z,6.03
2023-05-25T16:25:39.984Z,4.80
2023-05-25T16:27:13.580Z,6.07
2023-05-25T16:28:48.687Z,6.07
2023-05-25T16:30:22.097Z,5.97
2023-05-25T16:31:56.751Z,8.32
2023-05-25T16:33:30.957Z,6.00
2023-05-25T16:35:06.037Z,6.30
2023-05-25T16:36:40.404Z,4.63
2023-05-25T16:38:14.639Z,5.28
2023-05-25T16:39:48.760Z,5.72
2023-05-25T16:41:22.976Z,4.93
2023-05-25T16:42:56.426Z,6.25
2023-05-25T16:44:31.265Z,4.35
2023-05-25T16:46:04.633Z,7.57
2023-05-25T16:47:37.132Z,4.10
2023-05-25T16:49:10.393Z,4.85
2023-05-25T16:50:44.065Z,4.18
2023-05-25T16:52:17.459Z,5.80
2023-05-25T16:53:52.507Z,5.80
2023-05-25T16:55:27.453Z,5.65
2023-05-25T16:57:01.690Z,7.40
2023-05-25T16:58:35.114Z,6.03
2023-05-25T17:00:12.085Z,5.35
2023-05-25T17:01:45.385Z,5.10
2023-05-25T17:03:19.012Z,4.15
2023-05-25T17:04:52.629Z,5.65
2023-05-25T17:06:26.194Z,6.93
2023-05-25T17:08:00.132Z,6.30
2023-05-25T17:09:33.727Z,7.15
2023-05-25T17:11:07.464Z,4.93
2023-05-25T17:12:41.276Z,7.03
2023-05-25T17:14:14.683Z,5.55
2023-05-25T17:15:50.197Z,6.05
2023-05-25T17:17:24.996Z,4.50
2023-05-25T17:18:59.960Z,6.15
2023-05-25T17:20:33.299Z,4.93
2023-05-25T17:22:07.122Z,5.80
2023-05-25T17:23:41.498Z,7.60
2023-05-25T17:25:15.080Z,7.10
2023-05-25T17:26:50.129Z,5.35
2023-05-25T17:28:23.799Z,4.75
2023-05-25T17:29:57.241Z,6.93
2023-05-25T17:31:32.521Z,4.15
2023-05-25T17:33:06.699Z,5.57
2023-05-25T17:34:40.407Z,7.00
2023-05-25T17:36:17.074Z,9.05
2023-05-25T17:37:50.977Z,7.47
2023-05-25T17:39:24.608Z,5.63
2023-05-25T17:41:03.344Z,6.05
2023-05-25T17:42:37.064Z,5.88
2023-05-25T17:44:10.754Z,7.55
2023-05-25T17:45:44.624Z,5.88
2023-05-25T17:47:20.020Z,7.20
2023-05-25T17:48:53.492Z,5.72
2023-05-25T17:50:30.584Z,5.43
2023-05-25T17:52:04.626Z,6.38
2023-05-25T17:53:38.295Z,4.97
2023-05-25T17:55:11.982Z,7.57
2023-05-25T17:56:45.882Z,6.40
2023-05-25T17:58:20.010Z,5.30
2023-05-25T17:59:53.940Z,5.32
2023-05-25T18:01:27.647Z,5.97
2023-05-25T18:03:03.401Z,4.53
2023-05-25T18:04:37.108Z,4.85
2023-05-25T18:06:11.244Z,3.60
2023-05-25T18:07:44.748Z,6.65
2023-05-25T18:09:18.488Z,4.63
2023-05-25T18:10:52.925Z,6.95
2023-05-25T18:12:27.489Z,8.23
2023-05-25T18:14:01.471Z,6.28
2023-05-25T18:15:35.583Z,6.90
2023-05-25T18:17:09.365Z,4.40
2023-05-25T18:18:43.490Z,5.85
2023-05-25T18:20:17.226Z,5.35
2023-05-25T18:21:51.602Z,4.95
2023-05-25T18:23:26.444Z,5.90
2023-05-25T18:25:00.167Z,3.90
2023-05-25T18:26:33.448Z,4.60
2023-05-25T18:28:06.729Z,3.53
2023-05-25T18:29:40.202Z,5.32
2023-05-25T18:31:13.630Z,5.55
2023-05-25T18:32:47.017Z,4.70
2023-05-25T18:34:21.766Z,5.10
2023-05-25T18:35:55.272Z,5.10
2023-05-25T18:37:31.232Z,4.20
2023-05-25T18:39:05.247Z,4.57
2023-05-25T18:40:39.218Z,3.42
2023-05-25T18:42:13.021Z,4.88
2023-05-25T18:43:47.631Z,5.63
2023-05-25T18:45:21.285Z,4.55
2023-05-25T18:46:56.804Z,2.83
2023-05-25T18:48:30.218Z,5.18
2023-05-25T18:50:05.918Z,3.78
2023-05-25T18:51:40.167Z,5.20
2023-05-25T18:53:16.628Z,5.55
2023-05-25T18:54:50.493Z,6.03
2023-05-25T18:56:23.822Z,5.45
2023-05-25T18:57:57.743Z,5.07
2023-05-25T18:59:33.470Z,3.53
2023-05-25T19:01:09.748Z,3.42
2023-05-25T19:02:43.183Z,5.32
2023-05-25T19:04:16.791Z,4.50
2023-05-25T19:05:51.787Z,4.18
2023-05-25T19:07:25.458Z,4.20
2023-05-25T19:08:58.837Z,3.65
2023-05-25T19:10:32.141Z,4.85
2023-05-25T19:12:08.240Z,4.38
2023-05-25T19:13:41.656Z,4.35
2023-05-25T19:15:15.507Z,5.72
2023-05-25T19:16:49.497Z,5.53
2023-05-25T19:18:22.960Z,2.75
2023-05-25T19:19:56.399Z,3.10
2023-05-25T19:21:31.389Z,5.45
2023-05-25T19:23:04.990Z,3.92
2023-05-25T19:24:42.423Z,3.42
2023-05-25T19:26:16.328Z,5.63
2023-05-25T19:27:49.871Z,3.28
2023-05-25T19:29:24.008Z,3.20
2023-05-25T19:30:57.576Z,3.58
2023-05-25T19:32:31.175Z,3.75
2023-05-25T19:34:04.812Z,4.65
2023-05-25T19:35:38.965Z,4.47
2023-05-25T19:37:14.111Z,3.92
2023-05-25T19:38:48.118Z,3.97
2023-05-25T19:40:24.314Z,4.63
2023-05-25T19:41:58.355Z,4.95
2023-05-25T19:43:32.335Z,3.50
2023-05-25T19:45:07.105Z,4.43
2023-05-25T19:46:42.252Z,3.92
2023-05-25T19:48:15.582Z,4.45
2023-05-25T19:49:49.067Z,4.70
2023-05-25T19:51:22.835Z,4.05
2023-05-25T19:52:58.627Z,4.22
2023-05-25T19:54:32.102Z,4.75
2023-05-25T19:56:05.880Z,3.97
2023-05-25T19:57:39.525Z,4.25
2023-05-25T19:59:13.087Z,4.20
2023-05-25T20:00:46.573Z,4.22
2023-05-25T20:02:23.043Z,3.55
2023-05-25T20:03:56.679Z,5.90
2023-05-25T20:05:30.043Z,2.85
2023-05-25T20:07:03.477Z,4.85
2023-05-25T20:08:38.180Z,7.95
2023-05-25T20:10:11.825Z,5.38
2023-05-25T20:11:45.247Z,4.15
2023-05-25T20:13:18.721Z,3.40
2023-05-25T20:15:11.226Z,4.18
2023-05-25T20:16:44.866Z,3.58
2023-05-25T20:18:18.795Z,4.22
2023-05-25T20:19:53.712Z,5.25
2023-05-25T20:21:27.216Z,3.90
2023-05-25T20:23:00.448Z,6.18
2023-05-25T20:24:35.499Z,3.92
2023-05-25T20:26:08.878Z,3.17
2023-05-25T20:27:42.294Z,4.25
2023-05-25T20:29:16.114Z,5.32
2023-05-25T20:30:51.528Z,4.43
2023-05-25T20:32:24.822Z,4.88
2023-05-25T20:33:58.259Z,5.55
2023-05-25T20:35:31.747Z,3.30
2023-05-25T20:37:05.215Z,3.90
2023-05-25T20:38:38.581Z,5.82
2023-05-25T20:40:14.430Z,5.28
2023-05-25T20:41:47.802Z,4.35
2023-05-25T20:43:21.189Z,6.20
2023-05-25T20:44:54.494Z,3.95
2023-05-25T20:46:28.024Z,3.85
2023-05-25T20:48:02.437Z,4.38
2023-05-25T20:49:35.850Z,5.22
2023-05-25T20:51:11.454Z,3.92
2023-05-25T20:52:44.729Z,4.65
2023-05-25T20:54:18.427Z,4.10
2023-05-25T20:55:53.178Z,4.75
2023-05-25T20:57:26.550Z,6.07
2023-05-25T20:58:59.836Z,3.75
2023-05-25T21:00:33.119Z,4.95
2023-05-25T21:02:06.677Z,3.90
2023-05-25T21:03:40.805Z,5.72
2023-05-25T21:05:15.062Z,4.68
2023-05-25T21:06:48.305Z,7.38
2023-05-25T21:08:23.149Z,4.50
2023-05-25T21:11:34.036Z,3.63
2023-05-25T21:13:07.394Z,3.00
2023-05-25T21:14:40.687Z,4.70
2023-05-25T21:16:14.293Z,4.47
2023-05-25T21:17:47.768Z,3.90
2023-05-25T21:19:21.308Z,4.45
2023-05-25T21:20:55.938Z,4.15
2023-05-25T21:22:29.275Z,4.88
2023-05-25T21:24:03.245Z,6.53
2023-05-25T21:25:37.121Z,5.68
2023-05-25T21:27:13.364Z,4.03
2023-05-25T21:28:46.676Z,4.35
2023-05-25T21:30:20.836Z,6.40
2023-05-25T21:31:54.289Z,3.40
2023-05-25T21:33:29.308Z,4.30
2023-05-25T21:35:03.205Z,6.38
2023-05-25T21:36:37.026Z,6.18
2023-05-25T21:38:10.319Z,3.92
2023-05-25T21:39:43.626Z,3.22